sensor_id;sensor_type;location;lat;lon;timestamp;P1;durP1;ratioP1;P2;durP2;ratioP2
62535;SDS011;63050;47.514;18.920;2023-04-05T00:00:35;4.80;;;2.50;;
62535;SDS011;63050;47.514;18.920;2023-04-05T00:05:36;6.30;;;3.00;;
62535;SDS011;63050;47.514;18.920;2023-04-05T00:10:38;4.90;;;2.80;;
62535;SDS011;63050;47.514;18.920;2023-04-05T00:15:39;5.40;;;3.10;;
62535;SDS011;63050;47.514;18.920;2023-04-05T00:20:42;3.40;;;2.80;;
62535;SDS011;63050;47.514;18.920;2023-04-05T00:25:44;5.70;;;2.80;;
62535;SDS011;63050;47.514;18.920;2023-04-05T00:30:46;4.40;;;3.00;;
62535;SDS011;63050;47.514;18.920;2023-04-05T00:35:48;6.40;;;3.20;;
62535;SDS011;63050;47.514;18.920;2023-04-05T00:40:51;4.30;;;2.70;;
62535;SDS011;63050;47.514;18.920;2023-04-05T00:45:52;7.70;;;3.10;;
62535;SDS011;63050;47.514;18.920;2023-04-05T00:50:54;7.70;;;2.70;;
62535;SDS011;63050;47.514;18.920;2023-04-05T00:55:57;5.90;;;2.70;;
62535;SDS011;63050;47.514;18.920;2023-04-05T01:01:02;4.90;;;2.80;;
62535;SDS011;63050;47.514;18.920;2023-04-05T01:06:25;5.80;;;2.60;;
62535;SDS011;63050;47.514;18.920;2023-04-05T01:11:32;5.80;;;3.20;;
62535;SDS011;63050;47.514;18.920;2023-04-05T01:16:35;5.50;;;2.40;;
62535;SDS011;63050;47.514;18.920;2023-04-05T01:21:42;4.30;;;2.80;;
62535;SDS011;63050;47.514;18.920;2023-04-05T01:31:59;5.20;;;2.50;;
62535;SDS011;63050;47.514;18.920;2023-04-05T01:37:07;7.30;;;2.50;;
62535;SDS011;63050;47.514;18.920;2023-04-05T01:42:12;5.40;;;2.70;;
62535;SDS011;63050;47.514;18.920;2023-04-05T01:47:14;6.00;;;2.70;;
62535;SDS011;63050;47.514;18.920;2023-04-05T01:52:16;4.70;;;2.50;;
62535;SDS011;63050;47.514;18.920;2023-04-05T01:57:17;3.20;;;2.30;;
62535;SDS011;63050;47.514;18.920;2023-04-05T02:02:19;4.20;;;2.40;;
62535;SDS011;63050;47.514;18.920;2023-04-05T02:07:22;7.60;;;2.60;;
62535;SDS011;63050;47.514;18.920;2023-04-05T02:12:27;6.10;;;2.30;;
62535;SDS011;63050;47.514;18.920;2023-04-05T02:17:28;4.20;;;3.00;;
62535;SDS011;63050;47.514;18.920;2023-04-05T02:22:39;4.20;;;2.70;;
62535;SDS011;63050;47.514;18.920;2023-04-05T02:27:41;5.70;;;2.70;;
62535;SDS011;63050;47.514;18.920;2023-04-05T02:32:41;3.80;;;2.40;;
62535;SDS011;63050;47.514;18.920;2023-04-05T02:37:44;5.30;;;3.10;;
62535;SDS011;63050;47.514;18.920;2023-04-05T02:42:45;4.20;;;2.50;;
62535;SDS011;63050;47.514;18.920;2023-04-05T02:47:46;5.40;;;2.70;;
62535;SDS011;63050;47.514;18.920;2023-04-05T02:52:51;5.90;;;2.90;;
62535;SDS011;63050;47.514;18.920;2023-04-05T02:57:56;6.80;;;3.20;;
62535;SDS011;63050;47.514;18.920;2023-04-05T03:03:06;4.30;;;2.80;;
62535;SDS011;63050;47.514;18.920;2023-04-05T03:08:07;4.40;;;2.80;;
62535;SDS011;63050;47.514;18.920;2023-04-05T03:13:08;3.50;;;2.60;;
62535;SDS011;63050;47.514;18.920;2023-04-05T03:18:09;4.90;;;3.20;;
62535;SDS011;63050;47.514;18.920;2023-04-05T03:23:10;4.20;;;2.60;;
62535;SDS011;63050;47.514;18.920;2023-04-05T03:28:12;4.90;;;3.70;;
62535;SDS011;63050;47.514;18.920;2023-04-05T03:33:16;5.60;;;2.70;;
62535;SDS011;63050;47.514;18.920;2023-04-05T03:38:20;4.80;;;2.90;;
62535;SDS011;63050;47.514;18.920;2023-04-05T03:43:38;8.10;;;3.40;;
62535;SDS011;63050;47.514;18.920;2023-04-05T03:48:40;9.20;;;4.10;;
62535;SDS011;63050;47.514;18.920;2023-04-05T03:53:41;12.00;;;5.50;;
62535;SDS011;63050;47.514;18.920;2023-04-05T03:58:42;9.20;;;4.60;;
62535;SDS011;63050;47.514;18.920;2023-04-05T04:03:44;8.50;;;5.60;;
62535;SDS011;63050;47.514;18.920;2023-04-05T04:08:45;13.30;;;6.10;;
62535;SDS011;63050;47.514;18.920;2023-04-05T04:13:46;7.00;;;4.10;;
62535;SDS011;63050;47.514;18.920;2023-04-05T04:19:07;8.00;;;4.60;;
62535;SDS011;63050;47.514;18.920;2023-04-05T04:24:30;9.50;;;5.20;;
62535;SDS011;63050;47.514;18.920;2023-04-05T04:29:50;6.60;;;3.60;;
62535;SDS011;63050;47.514;18.920;2023-04-05T04:35:23;7.70;;;3.70;;
62535;SDS011;63050;47.514;18.920;2023-04-05T04:40:47;8.00;;;4.40;;
62535;SDS011;63050;47.514;18.920;2023-04-05T04:46:17;5.10;;;3.10;;
62535;SDS011;63050;47.514;18.920;2023-04-05T04:51:32;8.20;;;4.60;;
62535;SDS011;63050;47.514;18.920;2023-04-05T04:56:33;14.80;;;5.40;;
62535;SDS011;63050;47.514;18.920;2023-04-05T05:01:34;12.10;;;5.60;;
62535;SDS011;63050;47.514;18.920;2023-04-05T05:06:40;9.90;;;5.60;;
62535;SDS011;63050;47.514;18.920;2023-04-05T05:11:40;16.10;;;5.20;;
62535;SDS011;63050;47.514;18.920;2023-04-05T05:16:43;12.10;;;5.10;;
62535;SDS011;63050;47.514;18.920;2023-04-05T05:21:45;13.80;;;5.10;;
62535;SDS011;63050;47.514;18.920;2023-04-05T05:26:47;7.60;;;5.10;;
62535;SDS011;63050;47.514;18.920;2023-04-05T05:31:48;9.40;;;5.20;;
62535;SDS011;63050;47.514;18.920;2023-04-05T05:36:49;8.20;;;4.80;;
62535;SDS011;63050;47.514;18.920;2023-04-05T05:41:54;20.30;;;7.70;;
62535;SDS011;63050;47.514;18.920;2023-04-05T05:46:55;22.20;;;11.20;;
62535;SDS011;63050;47.514;18.920;2023-04-05T05:51:56;24.90;;;10.00;;
62535;SDS011;63050;47.514;18.920;2023-04-05T05:56:57;14.80;;;8.10;;
62535;SDS011;63050;47.514;18.920;2023-04-05T06:01:58;23.10;;;6.80;;
62535;SDS011;63050;47.514;18.920;2023-04-05T06:07:00;6.00;;;3.00;;
62535;SDS011;63050;47.514;18.920;2023-04-05T06:12:01;7.60;;;4.30;;
62535;SDS011;63050;47.514;18.920;2023-04-05T06:17:02;4.60;;;3.00;;
62535;SDS011;63050;47.514;18.920;2023-04-05T06:22:03;4.80;;;3.30;;
62535;SDS011;63050;47.514;18.920;2023-04-05T06:27:04;4.70;;;3.00;;
62535;SDS011;63050;47.514;18.920;2023-04-05T06:32:05;6.70;;;3.60;;
62535;SDS011;63050;47.514;18.920;2023-04-05T06:37:06;4.80;;;3.70;;
62535;SDS011;63050;47.514;18.920;2023-04-05T06:42:06;7.10;;;4.10;;
62535;SDS011;63050;47.514;18.920;2023-04-05T06:47:13;4.90;;;3.20;;
62535;SDS011;63050;47.514;18.920;2023-04-05T06:52:14;7.10;;;3.60;;
62535;SDS011;63050;47.514;18.920;2023-04-05T06:57:15;6.40;;;3.80;;
62535;SDS011;63050;47.514;18.920;2023-04-05T07:02:16;7.20;;;3.80;;
62535;SDS011;63050;47.514;18.920;2023-04-05T07:07:16;5.40;;;3.60;;
62535;SDS011;63050;47.514;18.920;2023-04-05T07:12:17;4.80;;;3.30;;
62535;SDS011;63050;47.514;18.920;2023-04-05T07:17:18;5.70;;;3.60;;
62535;SDS011;63050;47.514;18.920;2023-04-05T07:22:19;8.80;;;4.10;;
62535;SDS011;63050;47.514;18.920;2023-04-05T07:27:20;8.80;;;4.10;;
62535;SDS011;63050;47.514;18.920;2023-04-05T07:32:21;5.00;;;3.20;;
62535;SDS011;63050;47.514;18.920;2023-04-05T07:37:22;8.90;;;4.20;;
62535;SDS011;63050;47.514;18.920;2023-04-05T07:42:23;5.80;;;4.10;;
62535;SDS011;63050;47.514;18.920;2023-04-05T07:47:25;9.40;;;4.80;;
62535;SDS011;63050;47.514;18.920;2023-04-05T07:52:26;5.50;;;4.50;;
62535;SDS011;63050;47.514;18.920;2023-04-05T07:57:27;6.30;;;4.20;;
62535;SDS011;63050;47.514;18.920;2023-04-05T08:02:28;9.90;;;3.80;;
62535;SDS011;63050;47.514;18.920;2023-04-05T08:07:29;7.50;;;3.80;;
62535;SDS011;63050;47.514;18.920;2023-04-05T08:12:30;7.60;;;4.60;;
62535;SDS011;63050;47.514;18.920;2023-04-05T08:17:32;12.70;;;4.30;;
62535;SDS011;63050;47.514;18.920;2023-04-05T08:22:33;6.20;;;4.10;;
62535;SDS011;63050;47.514;18.920;2023-04-05T08:27:33;6.00;;;4.40;;
62535;SDS011;63050;47.514;18.920;2023-04-05T08:32:34;8.10;;;4.40;;
62535;SDS011;63050;47.514;18.920;2023-04-05T08:37:35;7.30;;;4.30;;
62535;SDS011;63050;47.514;18.920;2023-04-05T08:42:41;5.10;;;3.80;;
62535;SDS011;63050;47.514;18.920;2023-04-05T08:47:42;7.40;;;4.50;;
62535;SDS011;63050;47.514;18.920;2023-04-05T08:52:44;6.00;;;3.60;;
62535;SDS011;63050;47.514;18.920;2023-04-05T08:57:49;5.40;;;4.10;;
62535;SDS011;63050;47.514;18.920;2023-04-05T09:02:53;11.80;;;4.40;;
62535;SDS011;63050;47.514;18.920;2023-04-05T09:07:57;10.40;;;6.20;;
62535;SDS011;63050;47.514;18.920;2023-04-05T09:12:58;5.60;;;4.30;;
62535;SDS011;63050;47.514;18.920;2023-04-05T09:17:59;6.50;;;4.40;;
62535;SDS011;63050;47.514;18.920;2023-04-05T09:23:00;6.50;;;4.40;;
62535;SDS011;63050;47.514;18.920;2023-04-05T09:28:01;6.50;;;4.70;;
62535;SDS011;63050;47.514;18.920;2023-04-05T09:33:03;13.80;;;5.00;;
62535;SDS011;63050;47.514;18.920;2023-04-05T09:38:04;10.00;;;6.80;;
62535;SDS011;63050;47.514;18.920;2023-04-05T09:43:07;9.90;;;6.00;;
62535;SDS011;63050;47.514;18.920;2023-04-05T09:48:09;6.60;;;5.10;;
62535;SDS011;63050;47.514;18.920;2023-04-05T09:53:12;7.70;;;5.00;;
62535;SDS011;63050;47.514;18.920;2023-04-05T09:58:19;7.30;;;4.80;;
62535;SDS011;63050;47.514;18.920;2023-04-05T10:03:21;6.50;;;5.10;;
62535;SDS011;63050;47.514;18.920;2023-04-05T10:08:24;7.50;;;5.30;;
62535;SDS011;63050;47.514;18.920;2023-04-05T10:13:25;12.00;;;5.70;;
62535;SDS011;63050;47.514;18.920;2023-04-05T10:18:31;6.70;;;5.40;;
62535;SDS011;63050;47.514;18.920;2023-04-05T10:23:41;8.90;;;5.30;;
62535;SDS011;63050;47.514;18.920;2023-04-05T10:28:46;7.90;;;5.00;;
62535;SDS011;63050;47.514;18.920;2023-04-05T10:33:48;6.40;;;4.80;;
62535;SDS011;63050;47.514;18.920;2023-04-05T10:44:43;10.80;;;5.30;;
62535;SDS011;63050;47.514;18.920;2023-04-05T10:49:45;6.10;;;5.20;;
62535;SDS011;63050;47.514;18.920;2023-04-05T10:54:47;6.30;;;4.30;;
62535;SDS011;63050;47.514;18.920;2023-04-05T10:59:48;5.40;;;4.50;;
62535;SDS011;63050;47.514;18.920;2023-04-05T11:04:53;9.40;;;4.70;;
62535;SDS011;63050;47.514;18.920;2023-04-05T11:10:00;8.10;;;4.50;;
62535;SDS011;63050;47.514;18.920;2023-04-05T11:25:55;5.10;;;4.30;;
62535;SDS011;63050;47.514;18.920;2023-04-05T11:31:13;6.50;;;4.50;;
62535;SDS011;63050;47.514;18.920;2023-04-05T11:41:38;7.30;;;4.50;;
62535;SDS011;63050;47.514;18.920;2023-04-05T11:46:40;6.30;;;4.30;;
62535;SDS011;63050;47.514;18.920;2023-04-05T11:51:41;7.90;;;4.30;;
62535;SDS011;63050;47.514;18.920;2023-04-05T11:56:49;5.20;;;4.10;;
62535;SDS011;63050;47.514;18.920;2023-04-05T12:01:56;7.00;;;3.90;;
62535;SDS011;63050;47.514;18.920;2023-04-05T12:07:11;5.90;;;4.70;;
62535;SDS011;63050;47.514;18.920;2023-04-05T12:12:16;6.20;;;4.70;;
62535;SDS011;63050;47.514;18.920;2023-04-05T12:17:17;7.30;;;4.60;;
62535;SDS011;63050;47.514;18.920;2023-04-05T12:22:18;7.10;;;3.80;;
62535;SDS011;63050;47.514;18.920;2023-04-05T12:27:18;6.50;;;4.40;;
62535;SDS011;63050;47.514;18.920;2023-04-05T12:32:19;10.90;;;4.60;;
62535;SDS011;63050;47.514;18.920;2023-04-05T12:37:21;6.20;;;4.20;;
62535;SDS011;63050;47.514;18.920;2023-04-05T12:42:22;7.80;;;4.30;;
62535;SDS011;63050;47.514;18.920;2023-04-05T12:47:22;5.80;;;4.40;;
62535;SDS011;63050;47.514;18.920;2023-04-05T12:52:25;8.60;;;5.20;;
62535;SDS011;63050;47.514;18.920;2023-04-05T12:57:32;6.60;;;4.00;;
62535;SDS011;63050;47.514;18.920;2023-04-05T13:02:33;5.40;;;4.30;;
62535;SDS011;63050;47.514;18.920;2023-04-05T13:07:35;17.90;;;4.30;;
62535;SDS011;63050;47.514;18.920;2023-04-05T13:12:36;7.30;;;4.80;;
62535;SDS011;63050;47.514;18.920;2023-04-05T13:17:37;6.50;;;4.20;;
62535;SDS011;63050;47.514;18.920;2023-04-05T13:22:38;6.60;;;3.70;;
62535;SDS011;63050;47.514;18.920;2023-04-05T13:27:39;4.60;;;3.70;;
62535;SDS011;63050;47.514;18.920;2023-04-05T13:32:41;5.30;;;3.70;;
62535;SDS011;63050;47.514;18.920;2023-04-05T13:37:42;5.90;;;4.10;;
62535;SDS011;63050;47.514;18.920;2023-04-05T13:42:43;5.10;;;4.00;;
62535;SDS011;63050;47.514;18.920;2023-04-05T13:47:44;6.30;;;4.10;;
62535;SDS011;63050;47.514;18.920;2023-04-05T13:52:45;4.70;;;4.00;;
62535;SDS011;63050;47.514;18.920;2023-04-05T13:57:46;6.30;;;4.20;;
62535;SDS011;63050;47.514;18.920;2023-04-05T14:02:47;4.80;;;3.80;;
62535;SDS011;63050;47.514;18.920;2023-04-05T14:07:48;6.00;;;4.50;;
62535;SDS011;63050;47.514;18.920;2023-04-05T14:12:49;15.30;;;4.40;;
62535;SDS011;63050;47.514;18.920;2023-04-05T14:17:50;5.70;;;4.30;;
62535;SDS011;63050;47.514;18.920;2023-04-05T14:22:51;5.10;;;4.10;;
62535;SDS011;63050;47.514;18.920;2023-04-05T14:27:52;5.30;;;3.90;;
62535;SDS011;63050;47.514;18.920;2023-04-05T14:32:53;5.60;;;4.10;;
62535;SDS011;63050;47.514;18.920;2023-04-05T14:37:54;8.70;;;4.70;;
62535;SDS011;63050;47.514;18.920;2023-04-05T14:42:55;5.50;;;4.30;;
62535;SDS011;63050;47.514;18.920;2023-04-05T14:47:57;7.10;;;4.70;;
62535;SDS011;63050;47.514;18.920;2023-04-05T14:52:58;8.00;;;4.40;;
62535;SDS011;63050;47.514;18.920;2023-04-05T14:58:00;5.50;;;3.90;;
62535;SDS011;63050;47.514;18.920;2023-04-05T15:03:02;4.60;;;3.50;;
62535;SDS011;63050;47.514;18.920;2023-04-05T15:08:03;5.00;;;3.10;;
62535;SDS011;63050;47.514;18.920;2023-04-05T15:13:04;4.90;;;3.30;;
62535;SDS011;63050;47.514;18.920;2023-04-05T15:18:05;4.70;;;3.60;;
62535;SDS011;63050;47.514;18.920;2023-04-05T15:23:07;5.00;;;4.00;;
62535;SDS011;63050;47.514;18.920;2023-04-05T15:28:08;8.10;;;4.20;;
62535;SDS011;63050;47.514;18.920;2023-04-05T15:33:09;16.40;;;4.40;;
62535;SDS011;63050;47.514;18.920;2023-04-05T15:38:10;6.70;;;4.00;;
62535;SDS011;63050;47.514;18.920;2023-04-05T15:43:11;7.50;;;4.10;;
62535;SDS011;63050;47.514;18.920;2023-04-05T15:48:12;4.50;;;3.90;;
62535;SDS011;63050;47.514;18.920;2023-04-05T15:53:13;5.40;;;3.80;;
62535;SDS011;63050;47.514;18.920;2023-04-05T15:58:14;5.50;;;3.90;;
62535;SDS011;63050;47.514;18.920;2023-04-05T16:03:15;5.50;;;3.60;;
62535;SDS011;63050;47.514;18.920;2023-04-05T16:08:16;9.80;;;4.00;;
62535;SDS011;63050;47.514;18.920;2023-04-05T16:13:16;5.50;;;4.20;;
62535;SDS011;63050;47.514;18.920;2023-04-05T16:18:17;5.30;;;3.80;;
62535;SDS011;63050;47.514;18.920;2023-04-05T16:23:21;4.70;;;3.90;;
62535;SDS011;63050;47.514;18.920;2023-04-05T16:28:22;6.00;;;3.70;;
62535;SDS011;63050;47.514;18.920;2023-04-05T16:33:23;18.10;;;4.80;;
62535;SDS011;63050;47.514;18.920;2023-04-05T16:38:24;5.50;;;4.10;;
62535;SDS011;63050;47.514;18.920;2023-04-05T16:43:25;7.10;;;3.90;;
62535;SDS011;63050;47.514;18.920;2023-04-05T16:48:26;6.30;;;3.70;;
62535;SDS011;63050;47.514;18.920;2023-04-05T16:53:27;11.50;;;4.30;;
62535;SDS011;63050;47.514;18.920;2023-04-05T16:58:28;10.30;;;3.90;;
62535;SDS011;63050;47.514;18.920;2023-04-05T17:03:29;6.80;;;3.90;;
62535;SDS011;63050;47.514;18.920;2023-04-05T17:08:30;15.20;;;4.10;;
62535;SDS011;63050;47.514;18.920;2023-04-05T17:13:31;13.60;;;5.00;;
62535;SDS011;63050;47.514;18.920;2023-04-05T17:18:32;9.80;;;4.80;;
62535;SDS011;63050;47.514;18.920;2023-04-05T17:23:33;8.30;;;4.40;;
62535;SDS011;63050;47.514;18.920;2023-04-05T17:28:33;7.80;;;4.40;;
62535;SDS011;63050;47.514;18.920;2023-04-05T17:33:34;6.60;;;4.10;;
62535;SDS011;63050;47.514;18.920;2023-04-05T17:38:36;10.20;;;3.90;;
62535;SDS011;63050;47.514;18.920;2023-04-05T17:43:36;6.90;;;3.40;;
62535;SDS011;63050;47.514;18.920;2023-04-05T17:48:37;5.40;;;3.20;;
62535;SDS011;63050;47.514;18.920;2023-04-05T17:53:39;6.20;;;3.20;;
62535;SDS011;63050;47.514;18.920;2023-04-05T17:58:40;10.10;;;3.20;;
62535;SDS011;63050;47.514;18.920;2023-04-05T18:03:41;14.00;;;5.10;;
62535;SDS011;63050;47.514;18.920;2023-04-05T18:08:42;16.50;;;5.00;;
62535;SDS011;63050;47.514;18.920;2023-04-05T18:13:43;9.90;;;4.70;;
62535;SDS011;63050;47.514;18.920;2023-04-05T18:18:44;5.90;;;4.30;;
62535;SDS011;63050;47.514;18.920;2023-04-05T18:23:46;6.50;;;3.50;;
62535;SDS011;63050;47.514;18.920;2023-04-05T18:28:47;5.80;;;3.60;;
62535;SDS011;63050;47.514;18.920;2023-04-05T18:33:48;5.00;;;3.20;;
62535;SDS011;63050;47.514;18.920;2023-04-05T18:38:51;5.50;;;3.80;;
62535;SDS011;63050;47.514;18.920;2023-04-05T18:43:57;7.60;;;3.50;;
62535;SDS011;63050;47.514;18.920;2023-04-05T18:48:58;4.10;;;3.00;;
62535;SDS011;63050;47.514;18.920;2023-04-05T18:53:59;5.60;;;3.50;;
62535;SDS011;63050;47.514;18.920;2023-04-05T18:59:02;5.10;;;3.60;;
62535;SDS011;63050;47.514;18.920;2023-04-05T19:04:03;7.40;;;3.40;;
62535;SDS011;63050;47.514;18.920;2023-04-05T19:09:05;13.00;;;4.50;;
62535;SDS011;63050;47.514;18.920;2023-04-05T19:14:06;12.40;;;2.90;;
62535;SDS011;63050;47.514;18.920;2023-04-05T19:19:07;11.70;;;3.60;;
62535;SDS011;63050;47.514;18.920;2023-04-05T19:24:08;11.30;;;4.50;;
62535;SDS011;63050;47.514;18.920;2023-04-05T19:29:09;10.20;;;3.80;;
62535;SDS011;63050;47.514;18.920;2023-04-05T19:34:10;8.70;;;4.00;;
62535;SDS011;63050;47.514;18.920;2023-04-05T19:39:11;8.10;;;3.20;;
62535;SDS011;63050;47.514;18.920;2023-04-05T19:44:12;9.50;;;3.70;;
62535;SDS011;63050;47.514;18.920;2023-04-05T19:49:13;6.90;;;3.20;;
62535;SDS011;63050;47.514;18.920;2023-04-05T19:54:28;12.10;;;5.20;;
62535;SDS011;63050;47.514;18.920;2023-04-05T19:59:30;8.20;;;4.20;;
62535;SDS011;63050;47.514;18.920;2023-04-05T20:04:32;8.10;;;4.40;;
62535;SDS011;63050;47.514;18.920;2023-04-05T20:09:38;7.50;;;4.40;;
62535;SDS011;63050;47.514;18.920;2023-04-05T20:14:41;7.40;;;3.70;;
62535;SDS011;63050;47.514;18.920;2023-04-05T20:19:55;13.40;;;4.80;;
62535;SDS011;63050;47.514;18.920;2023-04-05T20:24:57;8.70;;;4.60;;
62535;SDS011;63050;47.514;18.920;2023-04-05T20:29:58;20.10;;;6.90;;
62535;SDS011;63050;47.514;18.920;2023-04-05T20:34:58;10.60;;;5.40;;
62535;SDS011;63050;47.514;18.920;2023-04-05T20:40:00;9.30;;;4.30;;
62535;SDS011;63050;47.514;18.920;2023-04-05T20:45:03;8.30;;;4.50;;
62535;SDS011;63050;47.514;18.920;2023-04-05T20:50:05;8.50;;;4.30;;
62535;SDS011;63050;47.514;18.920;2023-04-05T20:55:06;10.60;;;5.30;;
62535;SDS011;63050;47.514;18.920;2023-04-05T21:00:07;7.00;;;5.50;;
62535;SDS011;63050;47.514;18.920;2023-04-05T21:05:08;9.80;;;4.90;;
62535;SDS011;63050;47.514;18.920;2023-04-05T21:10:10;10.10;;;5.40;;
62535;SDS011;63050;47.514;18.920;2023-04-05T21:15:10;13.40;;;4.30;;
62535;SDS011;63050;47.514;18.920;2023-04-05T21:20:11;7.60;;;4.30;;
62535;SDS011;63050;47.514;18.920;2023-04-05T21:25:12;7.30;;;4.60;;
62535;SDS011;63050;47.514;18.920;2023-04-05T21:30:13;7.40;;;4.50;;
62535;SDS011;63050;47.514;18.920;2023-04-05T21:35:14;7.80;;;4.60;;
62535;SDS011;63050;47.514;18.920;2023-04-05T21:40:15;7.50;;;4.20;;
62535;SDS011;63050;47.514;18.920;2023-04-05T21:45:16;7.70;;;4.10;;
62535;SDS011;63050;47.514;18.920;2023-04-05T21:50:17;6.90;;;4.00;;
62535;SDS011;63050;47.514;18.920;2023-04-05T21:55:18;8.30;;;3.60;;
62535;SDS011;63050;47.514;18.920;2023-04-05T22:00:19;8.20;;;4.60;;
62535;SDS011;63050;47.514;18.920;2023-04-05T22:05:20;7.80;;;4.50;;
62535;SDS011;63050;47.514;18.920;2023-04-05T22:10:21;7.60;;;3.90;;
62535;SDS011;63050;47.514;18.920;2023-04-05T22:15:22;7.70;;;4.30;;
62535;SDS011;63050;47.514;18.920;2023-04-05T22:20:23;9.40;;;4.00;;
62535;SDS011;63050;47.514;18.920;2023-04-05T22:25:24;7.90;;;4.50;;
62535;SDS011;63050;47.514;18.920;2023-04-05T22:30:26;5.70;;;3.80;;
62535;SDS011;63050;47.514;18.920;2023-04-05T22:35:27;9.10;;;4.20;;
62535;SDS011;63050;47.514;18.920;2023-04-05T22:40:28;9.00;;;4.40;;
62535;SDS011;63050;47.514;18.920;2023-04-05T22:45:29;8.60;;;4.70;;
62535;SDS011;63050;47.514;18.920;2023-04-05T22:50:30;6.20;;;4.20;;
62535;SDS011;63050;47.514;18.920;2023-04-05T22:55:31;6.80;;;4.00;;
62535;SDS011;63050;47.514;18.920;2023-04-05T23:00:32;6.50;;;3.90;;
62535;SDS011;63050;47.514;18.920;2023-04-05T23:05:33;7.20;;;3.80;;
62535;SDS011;63050;47.514;18.920;2023-04-05T23:10:36;9.10;;;4.30;;
62535;SDS011;63050;47.514;18.920;2023-04-05T23:15:37;7.70;;;4.50;;
62535;SDS011;63050;47.514;18.920;2023-04-05T23:20:38;9.70;;;3.90;;
62535;SDS011;63050;47.514;18.920;2023-04-05T23:25:39;8.10;;;3.40;;
62535;SDS011;63050;47.514;18.920;2023-04-05T23:30:40;5.20;;;3.30;;
62535;SDS011;63050;47.514;18.920;2023-04-05T23:35:41;7.50;;;3.50;;
62535;SDS011;63050;47.514;18.920;2023-04-05T23:40:42;7.00;;;3.30;;
62535;SDS011;63050;47.514;18.920;2023-04-05T23:45:43;6.90;;;4.00;;
62535;SDS011;63050;47.514;18.920;2023-04-05T23:50:44;8.50;;;3.40;;
62535;SDS011;63050;47.514;18.920;2023-04-05T23:55:45;5.70;;;2.90;;
